Time;durP1;ratioP1;P1;durP2;ratioP2;P2;SDS_P1;SDS_P2;PMS_P1;PMS_P2;Temp;Humidity;BMP_temperature;BMP_pressure;BME280_temperature;BME280_humidity;BME280_pressure;Samples;Min_cycle;Max_cycle;Signal;HPM_P1;HPM_P2
2022/05/23 00:00:53;;;;;;;4.07;2.60;;;;;;;8.08;63.86;100808.12;1714919;83;20985;-80
2022/05/23 00:03:20;;;;;;;3.43;3.10;;;;;;;8.04;63.79;100806.84;1711203;83;21007;-80
2022/05/23 00:05:46;;;;;;;;;;;;;;;7.96;63.80;100807.72;1714553;83;21266;-81
2022/05/23 00:08:13;;;;;;;5.35;3.27;;;;;;;7.91;64.09;100801.73;1714536;83;20212;-80
2022/05/23 00:10:39;;;;;;;4.03;3.05;;;;;;;7.85;63.84;100800.45;1714501;83;21049;-80
2022/05/23 00:13:06;;;;;;;7.80;4.07;;;;;;;7.77;63.90;100802.21;1708434;83;21087;-80
2022/05/23 00:15:33;;;;;;;5.62;3.75;;;;;;;7.74;64.12;100800.07;1714632;83;21171;-79
2022/05/23 00:17:59;;;;;;;3.85;2.60;;;;;;;7.69;64.11;100791.06;1714029;83;21030;-80
2022/05/23 00:20:26;;;;;;;2.65;2.45;;;;;;;7.68;64.25;100791.92;1706738;83;21503;-80
2022/05/23 00:22:52;;;;;;;2.92;2.58;;;;;;;7.66;64.26;100793.64;1694760;83;21045;-80
2022/05/23 00:25:20;;;;;;;2.70;2.50;;;;;;;7.64;64.23;100795.36;1715352;83;21097;-80
2022/05/23 00:27:46;;;;;;;;;;;;;;;7.58;64.31;100796.22;1716374;83;21592;-80
2022/05/23 00:30:20;;;;;;;2.72;2.52;;;;;;;7.57;65.04;100799.66;1715038;83;20176;-80
2022/05/23 00:35:31;;;;;;;3.67;2.80;;;;;;;7.54;64.40;100803.95;1694761;83;21024;-80
2022/05/23 00:37:58;;;;;;;3.02;2.65;;;;;;;7.49;64.35;100804.38;1711333;83;21631;-81
2022/05/23 00:40:45;;;;;;;3.22;2.83;;;;;;;7.45;64.39;100802.66;1698382;83;21044;-81
2022/05/23 00:43:23;;;;;;;3.75;3.17;;;;;;;7.38;64.47;100803.09;1711483;83;21087;-80
2022/05/23 00:46:01;;;;;;;3.30;3.00;;;;;;;7.35;64.64;100797.95;1714238;83;20995;-80
2022/05/23 00:48:30;;;;;;;6.78;3.40;;;;;;;7.38;64.70;100799.23;1707691;83;28263;-80
2022/05/23 00:51:02;;;;;;;4.80;3.17;;;;;;;7.37;64.77;100799.23;1714512;83;21097;-80
2022/05/23 00:53:42;;;;;;;3.00;2.70;;;;;;;7.42;64.83;100800.09;1714338;83;21536;-81
2022/05/23 00:56:11;;;;;;;3.27;2.50;;;;;;;7.44;64.79;100800.52;1712505;83;21100;-81
2022/05/23 00:58:47;;;;;;;3.40;2.50;;;;;;;7.45;64.82;100801.38;1712526;82;21505;-80
2022/05/23 01:01:19;;;;;;;2.85;2.58;;;;;;;7.45;64.79;100803.52;1681624;84;21327;-81
2022/05/23 01:03:45;;;;;;;6.62;3.50;;;;;;;7.38;64.75;100797.09;1700459;83;21123;-80
2022/05/23 01:06:11;;;;;;;5.20;3.73;;;;;;;7.33;64.79;100792.38;1712047;83;21341;-80
2022/05/23 01:08:40;;;;;;;5.67;3.93;;;;;;;7.31;64.90;100796.23;1716093;82;20968;-80
2022/05/23 01:11:08;;;;;;;6.53;3.67;;;;;;;7.25;64.95;100798.41;1729452;81;21068;-80
2022/05/23 01:13:35;;;;;;;6.28;3.87;;;;;;;7.24;64.96;100803.55;1698237;83;21112;-80
2022/05/23 01:16:02;;;;;;;5.55;3.22;;;;;;;7.22;64.99;100802.26;1694147;83;21089;-80
2022/05/23 01:18:27;;;;;;;4.37;3.02;;;;;;;7.20;65.04;100807.83;1704958;83;21461;-80
2022/05/23 01:20:58;;;;;;;4.00;3.33;;;;;;;7.21;65.11;100801.83;1712942;83;21370;-81
2022/05/23 01:23:57;;;;;;;6.60;2.77;;;;;;;7.20;65.11;100810.83;1696998;83;21119;-81
2022/05/23 01:26:23;;;;;;;4.92;3.70;;;;;;;7.16;65.00;100809.11;1706642;83;21138;-80
2022/05/23 01:28:50;;;;;;;4.87;4.05;;;;;;;7.06;65.07;100800.95;1689623;84;21053;-80
2022/05/23 01:31:17;;;;;;;3.95;3.55;;;;;;;7.03;65.08;100803.09;1701624;83;21057;-81
2022/05/23 01:33:43;;;;;;;4.12;3.58;;;;;;;7.00;65.16;100805.66;1714375;83;20910;-81
2022/05/23 01:36:14;;;;;;;4.70;3.33;;;;;;;6.98;65.16;100806.94;1713871;83;21008;-81
2022/05/23 01:38:40;;;;;;;4.75;3.98;;;;;;;6.94;65.16;100799.22;1712769;83;21116;-80
2022/05/23 01:41:08;;;;;;;7.33;3.33;;;;;;;6.90;65.24;100796.21;1712712;83;20972;-80
2022/05/23 01:43:35;;;;;;;5.15;3.65;;;;;;;6.87;65.25;100791.92;1712466;83;21146;-80
2022/05/23 01:46:01;;;;;;;4.10;3.25;;;;;;;6.81;65.20;100794.48;1713753;83;20874;-79
2022/05/23 01:48:28;;;;;;;5.40;3.45;;;;;;;6.77;65.20;100796.61;1714641;83;21284;-80
2022/05/23 01:50:54;;;;;;;4.22;3.45;;;;;;;6.72;65.27;100792.34;1714145;83;20921;-80
2022/05/23 01:53:20;;;;;;;4.00;3.37;;;;;;;6.68;65.33;100786.77;1713965;83;20905;-80
2022/05/23 01:55:46;;;;;;;3.93;3.20;;;;;;;6.65;65.37;100782.48;1712714;83;20958;-79
2022/05/23 01:58:12;;;;;;;5.03;3.58;;;;;;;6.60;65.36;100783.75;1714605;82;20918;-79
2022/05/23 02:03:31;;;;;;;4.25;3.45;;;;;;;6.49;65.31;100772.58;1708159;83;21097;-82
2022/05/23 02:05:57;;;;;;;7.47;3.97;;;;;;;6.41;65.39;100773.41;1713018;83;21009;-80
2022/05/23 02:08:23;;;;;;;8.87;3.50;;;;;;;6.38;65.52;100774.67;1708377;83;21763;-80
2022/05/23 02:10:49;;;;;;;4.43;4.00;;;;;;;6.38;65.62;100774.25;1713094;83;21322;-81
2022/05/23 02:13:15;;;;;;;4.20;3.80;;;;;;;6.36;65.64;100768.67;1713244;83;21228;-82
2022/05/23 02:15:42;;;;;;;4.80;4.33;;;;;;;6.34;65.61;100763.96;1712650;83;21308;-82
2022/05/23 02:18:24;;;;;;;5.08;4.53;;;;;;;6.30;65.65;100756.67;1712443;83;21410;-80
2022/05/23 02:20:50;;;;;;;5.10;4.53;;;;;;;6.28;65.70;100757.95;1713258;83;20889;-80
2022/05/23 02:23:16;;;;;;;5.07;4.57;;;;;;;6.24;65.77;100754.94;1708893;83;21766;-80
2022/05/23 02:25:41;;;;;;;4.53;4.13;;;;;;;6.24;65.87;100750.22;1713514;83;20913;-80
2022/05/23 02:28:08;;;;;;;6.77;4.53;;;;;;;6.24;65.85;100756.22;1713515;83;20881;-81
2022/05/23 02:30:35;;;;;;;4.42;4.03;;;;;;;6.25;65.96;100747.66;1713395;83;21033;-80
2022/05/23 02:33:01;;;;;;;6.35;4.75;;;;;;;6.27;65.99;100745.96;1712960;83;21116;-80
2022/05/23 02:35:27;;;;;;;5.78;4.28;;;;;;;6.28;66.06;100745.11;1694670;83;21104;-81
2022/05/23 02:37:53;;;;;;;5.28;3.70;;;;;;;6.29;66.09;100739.13;1713666;83;20992;-83
2022/05/23 02:40:19;;;;;;;4.40;4.00;;;;;;;6.33;66.11;100741.27;1713518;83;21088;-81
2022/05/23 02:42:46;;;;;;;4.40;4.00;;;;;;;6.32;66.07;100739.56;1709404;83;21080;-81
2022/05/23 02:45:13;;;;;;;6.40;3.98;;;;;;;6.30;66.11;100741.27;1713025;83;21339;-81
2022/05/23 02:47:39;;;;;;;7.30;4.33;;;;;;;6.30;66.15;100742.13;1712892;83;21086;-82
2022/05/23 02:50:08;;;;;;;5.80;4.30;;;;;;;6.28;66.13;100737.41;1705959;83;21592;-82
2022/05/23 02:52:35;;;;;;;3.70;3.40;;;;;;;6.25;66.13;100741.67;1712702;83;21096;-81
2022/05/23 02:55:02;;;;;;;5.85;3.75;;;;;;;6.26;66.33;100734.41;1713063;83;21119;-82
2022/05/23 02:57:28;;;;;;;5.12;4.03;;;;;;;6.33;66.39;100738.70;1714251;83;21040;-81
2022/05/23 02:59:57;;;;;;;4.78;3.45;;;;;;;6.31;66.30;100734.84;1702494;82;20984;-81
2022/05/23 03:05:09;;;;;;;4.30;3.90;;;;;;;6.34;66.49;100740.42;1711215;83;21056;-82
2022/05/23 03:07:35;;;;;;;4.62;3.80;;;;;;;6.38;66.41;100737.01;1710002;83;21064;-82
2022/05/23 03:10:01;;;;;;;4.15;3.75;;;;;;;6.37;66.40;100741.72;1715085;83;21104;-81
2022/05/23 03:12:28;;;;;;;3.62;3.33;;;;;;;6.36;66.41;100741.71;1714776;83;21338;-82
2022/05/23 03:14:55;;;;;;;4.83;4.12;;;;;;;6.34;66.53;100731.86;1716530;83;20910;-82
2022/05/23 03:17:21;;;;;;;3.60;3.00;;;;;;;6.37;66.51;100735.30;1706555;83;20925;-82
2022/05/23 03:19:47;;;;;;;6.60;4.30;;;;;;;6.36;66.54;100737.86;1705710;83;21119;-81
2022/05/23 03:27:48;;;;;;;4.40;4.00;;;;;;;6.34;66.80;100734.00;1712197;83;21532;-81
2022/05/23 03:30:18;;;;;;;4.45;4.05;;;;;;;6.39;66.95;100735.30;1704969;83;21064;-83
2022/05/23 03:32:44;;;;;;;5.65;4.25;;;;;;;6.44;66.97;100746.02;1682162;84;21106;-82
2022/05/23 03:35:10;;;;;;;6.20;4.33;;;;;;;6.46;66.93;100744.31;1677216;85;21016;-82
2022/05/23 03:37:37;;;;;;;7.12;5.10;;;;;;;6.53;67.07;100745.19;1682221;85;22394;-82
2022/05/23 03:40:06;;;;;;;5.87;3.80;;;;;;;6.58;67.00;100746.06;1681474;85;21073;-82
2022/05/23 03:42:34;;;;;;;5.00;4.20;;;;;;;6.63;67.02;100743.93;1682343;85;21163;-80
2022/05/23 03:45:00;;;;;;;4.10;3.70;;;;;;;6.67;67.02;100742.23;1682925;85;21499;-82
2022/05/23 03:47:28;;;;;;;6.67;4.60;;;;;;;6.73;67.03;100742.66;1682333;85;21115;-81
2022/05/23 03:49:54;;;;;;;4.97;4.43;;;;;;;6.75;67.04;100751.23;1703217;84;20905;-81
2022/05/23 03:52:21;;;;;;;4.90;4.50;;;;;;;6.77;67.07;100752.06;1702577;84;21108;-81
2022/05/23 03:54:47;;;;;;;5.15;4.65;;;;;;;6.82;67.21;100758.92;1704937;83;21103;-81
2022/05/23 03:57:13;;;;;;;6.95;5.45;;;;;;;6.90;67.25;100766.22;1704627;83;22142;-81
2022/05/23 03:59:39;;;;;;;5.20;4.70;;;;;;;6.97;67.23;100767.09;1709239;83;20980;-80
2022/05/23 04:02:05;;;;;;;4.95;4.55;;;;;;;7.05;67.28;100771.81;1710078;82;21067;-80
2022/05/23 04:04:32;;;;;;;6.78;5.92;;;;;;;7.14;67.35;100764.53;1700884;82;21087;-80
2022/05/23 04:07:04;;;;;;;;;;;;;;;7.25;67.45;100768.83;1710404;83;21072;-81
2022/05/23 04:09:32;;;;;;;11.95;8.98;;;;;;;7.38;67.77;100772.66;1714931;83;20201;-81
2022/05/23 04:11:59;;;;;;;15.83;10.93;;;;;;;7.50;67.49;100777.36;1716873;82;20910;-82
2022/05/23 04:14:26;;;;;;;18.85;12.37;;;;;;;7.58;67.45;100776.92;1706004;82;20956;-80
2022/05/23 04:16:54;;;;;;;19.73;12.20;;;;;;;7.64;67.51;100782.50;1713025;82;20950;-81
2022/05/23 04:19:20;;;;;;;;;;;;;;;7.73;67.60;100777.77;1718859;83;20892;-80
2022/05/23 04:21:47;;;;;;;15.88;11.20;;;;;;;7.81;67.96;100782.01;1715037;82;20114;-80
2022/05/23 04:24:18;;;;;;;13.80;10.10;;;;;;;7.90;67.66;100778.12;1716495;83;20961;-79
2022/05/23 04:26:52;;;;;;;12.00;8.73;;;;;;;7.98;67.68;100780.69;1715993;83;20909;-79
2022/05/23 04:29:18;;;;;;;9.60;7.22;;;;;;;8.08;67.73;100784.09;1712093;82;21030;-79
2022/05/23 04:31:44;;;;;;;7.25;6.55;;;;;;;8.16;67.79;100784.49;1711756;82;20996;-79
2022/05/23 04:36:57;;;;;;;;;;;;;;;8.35;67.90;100783.14;1686358;83;21130;-78
2022/05/23 04:39:23;;;;;;;5.62;5.12;;;;;;;8.44;68.36;100791.69;1671224;83;20154;-80
2022/05/23 04:41:49;;;;;;;6.00;5.40;;;;;;;8.52;68.02;100787.36;1716705;82;21059;-77
2022/05/23 04:44:16;;;;;;;6.37;5.78;;;;;;;8.61;68.02;100788.60;1682239;84;21780;-78
2022/05/23 04:52:15;;;;;;;6.17;5.47;;;;;;;8.98;68.13;100802.98;1714096;83;20929;-79
2022/05/23 04:54:43;;;;;;;5.90;5.17;;;;;;;9.09;68.17;100797.31;1714516;83;20999;-81
2022/05/23 04:57:11;;;;;;;5.80;5.00;;;;;;;9.22;68.21;100803.67;1712616;82;21060;-80
2022/05/23 04:59:37;;;;;;;5.78;5.28;;;;;;;9.39;68.36;100800.92;1693965;82;21068;-80
2022/05/23 05:02:05;;;;;;;6.65;5.90;;;;;;;9.62;68.50;100799.44;1707254;82;20968;-81
2022/05/23 05:04:32;;;;;;;8.25;5.60;;;;;;;10.05;68.75;100798.55;1703911;83;21534;-80
2022/05/23 05:06:58;;;;;;;7.12;5.60;;;;;;;10.67;68.80;100798.68;1701885;84;21003;-80
2022/05/23 05:09:25;;;;;;;7.92;6.05;;;;;;;11.41;68.83;100802.72;1700039;84;21047;-80
2022/05/23 05:11:51;;;;;;;6.50;4.83;;;;;;;12.17;68.83;100804.36;1700725;84;21119;-80
2022/05/23 05:14:19;;;;;;;5.12;4.50;;;;;;;12.98;68.67;100811.72;1712200;83;21048;-80
2022/05/23 05:16:45;;;;;;;8.00;4.80;;;;;;;13.70;68.56;100807.77;1712608;83;21021;-80
2022/05/23 05:19:11;;;;;;;5.42;4.85;;;;;;;14.35;68.42;100805.11;1713315;83;21552;-80
2022/05/23 05:21:37;;;;;;;5.03;4.53;;;;;;;15.02;68.28;100810.93;1712535;83;21034;-80
2022/05/23 05:24:05;;;;;;;4.92;4.53;;;;;;;15.68;68.12;100819.20;1712916;83;21120;-80
2022/05/23 05:26:31;;;;;;;10.23;4.70;;;;;;;16.28;67.89;100817.94;1711183;83;20909;-81
2022/05/23 05:28:57;;;;;;;5.62;4.17;;;;;;;16.80;67.88;100822.94;1702577;83;20906;-81
2022/05/23 05:31:48;;;;;;;5.22;4.58;;;;;;;17.27;67.79;100826.73;1709790;83;21639;-81
2022/05/23 05:34:38;;;;;;;4.62;4.12;;;;;;;17.86;67.80;100823.41;1701990;83;21124;-81
2022/05/23 05:37:09;;;;;;;5.72;4.25;;;;;;;18.69;67.67;100821.91;1694994;83;21125;-81
2022/05/23 05:39:38;;;;;;;4.92;3.40;;;;;;;19.32;67.35;100824.50;1695137;83;20906;-81
2022/05/23 05:42:09;;;;;;;3.55;3.25;;;;;;;19.63;67.12;100825.65;1720560;82;21461;-81
2022/05/23 05:44:40;;;;;;;3.62;3.17;;;;;;;19.94;67.15;100823.14;1714274;81;20981;-81
2022/05/23 05:47:11;;;;;;;5.40;2.72;;;;;;;20.43;67.30;100820.11;1711508;83;21103;-81
2022/05/23 05:49:40;;;;;;;3.47;3.17;;;;;;;20.86;66.90;100828.73;1711537;83;21116;-82
2022/05/23 05:52:10;;;;;;;3.30;2.92;;;;;;;21.13;66.67;100821.94;1706547;83;21076;-81
2022/05/23 05:54:38;;;;;;;4.33;2.98;;;;;;;21.56;66.72;100818.17;1711493;83;21036;-82
2022/05/23 05:57:07;;;;;;;5.58;3.15;;;;;;;21.93;66.33;100807.60;1709049;83;20917;-81
2022/05/23 05:59:35;;;;;;;3.72;2.90;;;;;;;22.24;66.00;100822.44;1701729;83;20968;-81
2022/05/23 06:02:01;;;;;;;2.98;2.70;;;;;;;22.52;65.79;100821.08;1700866;83;20930;-81
2022/05/23 06:04:27;;;;;;;3.42;3.00;;;;;;;22.80;65.48;100824.66;1715672;83;20945;-81
2022/05/23 06:12:22;;;;;;;5.67;3.30;;;;;;;23.34;64.51;100820.22;1695932;83;20917;-81
2022/05/23 06:14:48;;;;;;;;;;;;;;;23.47;64.16;100814.47;1713621;83;20960;-81
2022/05/23 06:17:13;;;;;;;4.57;3.07;;;;;;;23.49;63.07;100815.22;1705647;83;20294;-82
2022/05/23 06:19:45;;;;;;;3.47;2.95;;;;;;;23.46;63.48;100815.42;1709987;83;20910;-81
2022/05/23 06:22:14;;;;;;;3.50;3.20;;;;;;;23.47;63.02;100821.07;1707542;83;20945;-81
2022/05/23 06:24:41;;;;;;;3.15;2.95;;;;;;;23.44;62.50;100825.23;1710769;83;21438;-82
2022/05/23 06:27:09;;;;;;;4.75;3.08;;;;;;;23.31;61.58;100820.42;1701397;83;20945;-82
2022/05/23 06:29:38;;;;;;;7.17;2.92;;;;;;;23.11;61.45;100823.87;1715029;83;20918;-82
2022/05/23 06:32:05;;;;;;;5.80;3.67;;;;;;;22.86;60.77;100800.53;1703645;83;20973;-82
2022/05/23 06:34:31;;;;;;;3.62;3.33;;;;;;;22.87;59.79;100800.44;1709914;83;20917;-83
2022/05/23 06:36:59;;;;;;;3.20;2.77;;;;;;;22.87;59.79;100800.44;1678898;85;21396;-83
2022/05/23 06:39:26;;;;;;;3.92;2.72;;;;;;;22.91;59.82;100822.99;1677846;84;21039;-83
2022/05/23 06:41:53;;;;;;;3.93;2.33;;;;;;;22.91;59.70;100817.72;1708557;83;20901;-83
2022/05/23 06:44:19;;;;;;;3.33;2.77;;;;;;;23.02;59.34;100821.84;1702392;83;21584;-83
2022/05/23 06:46:46;;;;;;;5.17;3.33;;;;;;;23.07;58.68;100814.95;1696022;83;165144;-82
2022/05/23 06:49:13;;;;;;;3.15;2.60;;;;;;;23.04;58.25;100817.31;1692492;83;21063;-83
2022/05/23 06:51:40;;;;;;;4.20;3.02;;;;;;;22.92;57.78;100809.34;1706721;83;20989;-82
2022/05/23 06:54:07;;;;;;;5.17;2.87;;;;;;;22.77;57.62;100806.73;1699288;84;21047;-82
2022/05/23 06:57:00;;;;;;;6.10;3.30;;;;;;;22.68;57.24;100803.36;1705378;83;21067;-82
2022/05/23 06:59:27;;;;;;;4.05;3.75;;;;;;;22.53;56.96;100800.84;1685161;83;21561;-82
2022/05/23 07:01:54;;;;;;;4.22;3.90;;;;;;;22.44;56.80;100797.84;1708226;83;20992;-83
2022/05/23 07:04:21;;;;;;;6.17;3.02;;;;;;;22.43;56.49;100793.51;1702726;83;20985;-82
2022/05/23 07:12:26;;;;;;;3.20;2.80;;;;;;;22.53;55.55;100786.34;1710147;83;21012;-83
2022/05/23 07:14:56;;;;;;;4.53;2.80;;;;;;;22.56;55.48;100783.05;1711972;83;20953;-83
2022/05/23 07:17:24;;;;;;;4.67;3.02;;;;;;;22.64;55.13;100781.24;1711138;83;21423;-82
2022/05/23 07:19:50;;;;;;;3.60;2.85;;;;;;;22.67;54.95;100770.50;1707824;83;20919;-82
2022/05/23 07:22:16;;;;;;;3.40;2.93;;;;;;;22.70;54.57;100766.36;1711842;83;21638;-82
2022/05/23 07:24:44;;;;;;;3.87;3.33;;;;;;;22.66;54.26;100765.70;1709648;83;20909;-83
2022/05/23 07:27:12;;;;;;;2.70;2.50;;;;;;;22.51;53.91;100755.29;1708862;83;21533;-83
2022/05/23 07:29:38;;;;;;;;;;;;;;;22.53;53.96;100764.79;1716311;83;20967;-82
2022/05/23 07:32:05;;;;;;;3.72;2.42;;;;;;;22.59;53.02;100767.51;1674820;83;20105;-83
2022/05/23 07:34:31;;;;;;;3.60;2.58;;;;;;;22.59;53.57;100759.60;1683818;84;20931;-82
2022/05/23 07:36:59;;;;;;;3.17;2.80;;;;;;;22.71;53.40;100758.82;1683194;85;21926;-83
2022/05/23 07:39:26;;;;;;;6.83;2.77;;;;;;;22.76;53.04;100754.95;1683614;84;20898;-82
2022/05/23 07:41:52;;;;;;;2.90;2.60;;;;;;;22.77;52.30;100757.95;1683423;84;20949;-82
2022/05/23 07:44:18;;;;;;;6.07;2.53;;;;;;;22.55;52.43;100751.52;1683089;84;21504;-82
2022/05/23 07:46:44;;;;;;;3.77;2.60;;;;;;;22.59;52.47;100744.63;1681662;84;21635;-82
2022/05/23 07:49:10;;;;;;;2.98;2.70;;;;;;;22.59;52.27;100746.42;1682095;85;21120;-82
2022/05/23 07:51:37;;;;;;;4.33;2.50;;;;;;;22.68;52.02;100747.16;1681924;84;21618;-83
2022/05/23 08:02:26;;;;;;;2.45;1.98;;;;;;;22.94;51.09;100734.92;1679407;84;21587;-82
2022/05/23 08:04:52;;;;;;;3.02;2.58;;;;;;;22.96;50.88;100734.35;1693859;83;21075;-82
2022/05/23 08:07:18;;;;;;;2.80;2.50;;;;;;;22.96;50.60;100733.03;1701880;83;21513;-83
2022/05/23 08:09:48;;;;;;;8.35;2.17;;;;;;;22.96;50.41;100727.28;1698783;84;21575;-82
2022/05/23 08:12:16;;;;;;;2.70;2.50;;;;;;;22.90;50.26;100719.77;1702593;82;21960;-82
2022/05/23 08:14:42;;;;;;;4.33;2.60;;;;;;;22.83;49.93;100720.30;1701770;83;21084;-82
2022/05/23 08:17:08;;;;;;;2.70;2.30;;;;;;;22.62;49.69;100719.39;1708996;83;21758;-82
2022/05/23 08:19:35;;;;;;;3.47;2.25;;;;;;;22.63;49.80;100717.61;1705662;83;26848;-82
2022/05/23 08:22:04;;;;;;;3.08;2.55;;;;;;;22.64;49.44;100712.70;1693872;83;50026;-82
2022/05/23 08:24:30;;;;;;;4.95;2.70;;;;;;;22.46;49.01;100710.30;1702438;83;20921;-83
2022/05/23 08:26:58;;;;;;;2.23;2.03;;;;;;;22.27;49.04;100705.86;1707863;83;20914;-82
2022/05/23 08:29:24;;;;;;;2.40;2.12;;;;;;;22.20;48.88;100705.02;1703735;83;21362;-82
2022/05/23 08:31:51;;;;;;;2.17;1.97;;;;;;;22.14;48.73;100700.98;1707581;83;21581;-82
2022/05/23 08:34:17;;;;;;;4.78;2.12;;;;;;;22.11;48.63;100699.39;1713279;83;21517;-82
2022/05/23 08:36:43;;;;;;;3.90;2.58;;;;;;;22.14;48.48;100702.30;1689041;83;20874;-82
2022/05/23 08:39:10;;;;;;;4.33;2.07;;;;;;;22.11;48.26;100701.17;1695655;83;21088;-82
2022/05/23 08:41:44;;;;;;;2.20;2.00;;;;;;;22.09;48.23;100696.47;1700911;83;21563;-82
2022/05/23 08:44:37;;;;;;;4.72;1.85;;;;;;;22.15;48.18;100694.77;1702801;83;21091;-82
2022/05/23 08:47:33;;;;;;;3.10;2.65;;;;;;;22.28;47.94;100693.53;1696085;83;21556;-82
2022/05/23 08:50:17;;;;;;;2.02;1.82;;;;;;;22.29;47.74;100692.59;1696352;83;21654;-81
2022/05/23 08:53:04;;;;;;;2.08;1.70;;;;;;;22.28;47.66;100698.80;1705225;83;21048;-82
2022/05/23 08:55:33;;;;;;;;;;;;;;;22.28;47.49;100690.90;1715573;83;21123;-82
2022/05/23 08:58:22;;;;;;;1.72;1.42;;;;;;;22.17;47.08;100686.30;1708401;83;20278;-83
2022/05/23 09:01:14;;;;;;;1.82;1.70;;;;;;;22.12;47.26;100692.33;1703636;83;21408;-83
2022/05/23 09:04:09;;;;;;;3.25;1.90;;;;;;;22.11;47.26;100686.69;1660566;83;21696;-82
2022/05/23 09:06:44;;;;;;;1.60;1.50;;;;;;;22.13;47.11;100679.54;1707758;83;21417;-82
2022/05/23 09:09:14;;;;;;;2.05;1.35;;;;;;;22.09;46.87;100676.72;1708813;83;21056;-82
2022/05/23 09:11:44;;;;;;;1.52;1.42;;;;;;;22.03;46.71;100678.42;1690544;83;21171;-83
2022/05/23 09:14:14;;;;;;;0.70;0.70;;;;;;;21.86;46.49;100676.80;1688451;83;21055;-82
2022/05/23 09:16:53;;;;;;;1.22;1.10;;;;;;;21.53;46.25;100660.47;1706875;83;21498;-83
2022/05/23 09:19:41;;;;;;;1.42;1.05;;;;;;;21.23;45.91;100658.77;1703325;83;22376;-82
2022/05/23 09:22:18;;;;;;;1.27;1.17;;;;;;;20.90;45.88;100656.77;1707105;83;20949;-82
2022/05/23 09:24:59;;;;;;;5.40;1.82;;;;;;;20.76;45.96;100658.44;1702668;83;21116;-82
2022/05/23 09:27:39;;;;;;;2.20;1.52;;;;;;;20.70;45.87;100657.48;1706469;83;21578;-82
2022/05/23 09:30:16;;;;;;;1.90;1.12;;;;;;;20.64;45.65;100652.57;1704967;83;20957;-82
2022/05/23 09:33:03;;;;;;;3.25;1.62;;;;;;;20.52;45.50;100649.79;1694870;83;20894;-82
2022/05/23 09:35:47;;;;;;;1.42;1.15;;;;;;;20.34;45.24;100643.29;1625922;85;20917;-82
2022/05/23 09:38:22;;;;;;;2.67;2.30;;;;;;;20.10;45.39;100648.61;1698205;83;21151;-82
2022/05/23 09:40:50;;;;;;;2.15;1.80;;;;;;;19.92;45.15;100644.36;1693991;83;20921;-81
2022/05/23 09:49:15;;;;;;;2.08;1.87;;;;;;;19.66;45.20;100632.20;1696378;83;20905;-82
2022/05/23 09:51:58;;;;;;;1.70;1.47;;;;;;;19.57;45.12;100623.97;1699048;83;20974;-83
2022/05/23 09:54:36;;;;;;;1.65;1.45;;;;;;;19.59;45.25;100623.43;1669611;85;20917;-83
2022/05/23 09:57:07;;;;;;;2.08;1.67;;;;;;;19.64;45.14;100622.25;1706933;83;20949;-82
2022/05/23 09:59:39;;;;;;;2.17;1.90;;;;;;;19.68;45.10;100623.79;1679636;83;20938;-82
2022/05/23 10:02:18;;;;;;;2.05;1.85;;;;;;;19.70;44.91;100614.06;1669316;85;21001;-82
2022/05/23 10:04:46;;;;;;;1.90;1.50;;;;;;;19.58;44.84;100604.22;1664696;85;20961;-82
2022/05/23 10:07:32;;;;;;;2.08;1.87;;;;;;;19.46;44.98;100605.69;1665337;85;21438;-82
2022/05/23 10:10:20;;;;;;;2.45;1.60;;;;;;;19.52;45.02;100603.70;1663549;86;20951;-82
2022/05/23 10:12:48;;;;;;;4.30;1.67;;;;;;;19.49;44.90;100598.12;1666934;86;21706;-82
2022/05/23 10:15:30;;;;;;;3.35;1.67;;;;;;;19.48;45.02;100605.60;1670123;84;20992;-82
2022/05/23 10:18:10;;;;;;;2.15;1.90;;;;;;;19.49;44.94;100604.21;1666404;86;21137;-82
2022/05/23 10:20:41;;;;;;;2.17;1.92;;;;;;;19.48;44.95;100600.36;1654767;86;21072;-81
2022/05/23 10:23:30;;;;;;;2.98;1.98;;;;;;;19.56;45.06;100606.54;1657154;86;20969;-81
2022/05/23 10:26:24;;;;;;;1.85;1.72;;;;;;;19.59;45.01;100596.73;1667866;85;20954;-81
2022/05/23 10:29:10;;;;;;;4.62;1.50;;;;;;;19.55;44.96;100601.76;1667335;86;21478;-81
2022/05/23 10:31:49;;;;;;;;;;;;;;;19.61;44.93;100600.13;1668825;86;21398;-82
2022/05/23 10:34:35;;;;;;;1.57;1.47;;;;;;;19.58;45.02;100600.75;1665112;85;20205;-82
2022/05/23 10:37:14;;;;;;;2.62;1.45;;;;;;;19.60;45.08;100604.14;1659542;85;21084;-81
2022/05/23 10:43:09;;;;;;;2.40;1.77;;;;;;;19.63;45.02;100597.42;1661429;86;21054;-82
2022/05/23 10:45:42;;;;;;;2.30;1.52;;;;;;;19.70;45.04;100594.38;1666057;86;21078;-82
2022/05/23 10:48:50;;;;;;;2.35;2.08;;;;;;;19.76;45.03;100587.46;1663788;86;21068;-83
2022/05/23 10:51:52;;;;;;;3.67;1.90;;;;;;;19.88;45.07;100589.03;1658583;86;21053;-82
2022/05/23 10:54:43;;;;;;;2.15;2.00;;;;;;;19.86;44.96;100593.52;1661487;85;21123;-82
2022/05/23 10:58:00;;;;;;;2.25;2.02;;;;;;;19.83;45.01;100580.09;1705222;83;21119;-82
2022/05/23 11:00:38;;;;;;;1.60;1.50;;;;;;;19.88;44.99;100572.82;1731408;81;21533;-82
2022/05/23 11:03:15;;;;;;;1.67;1.57;;;;;;;19.89;44.95;100573.20;1726379;81;20945;-82
2022/05/23 11:06:02;;;;;;;2.10;1.87;;;;;;;19.79;44.86;100561.52;1725657;81;21342;-82
2022/05/23 11:08:34;;;;;;;2.12;1.72;;;;;;;19.78;44.97;100563.76;1734274;81;29567;-82
2022/05/23 11:11:34;;;;;;;2.33;1.80;;;;;;;19.87;45.14;100567.19;1732308;81;21409;-82
2022/05/23 11:14:17;;;;;;;4.62;1.72;;;;;;;20.03;45.11;100558.85;1724977;82;20940;-82
2022/05/23 11:16:55;;;;;;;2.67;2.05;;;;;;;20.12;44.98;100553.55;1719921;81;20916;-81
2022/05/23 11:19:37;;;;;;;1.90;1.67;;;;;;;20.08;44.88;100552.03;1725633;81;20916;-82
2022/05/23 11:22:28;;;;;;;1.82;1.60;;;;;;;20.09;44.94;100560.28;1700092;83;20877;-82
2022/05/23 11:25:09;;;;;;;3.80;1.80;;;;;;;20.02;44.86;100553.22;1682145;84;20932;-82
2022/05/23 11:36:04;;;;;;;3.67;2.08;;;;;;;20.04;44.79;100534.76;1648518;83;20945;-78
2022/05/23 11:38:32;;;;;;;1.92;1.75;;;;;;;19.97;44.90;100536.03;1714761;81;21076;-78
2022/05/23 11:41:04;;;;;;;1.92;1.70;;;;;;;20.05;44.99;100528.11;1711900;81;20929;-78
2022/05/23 11:43:30;;;;;;;1.90;1.80;;;;;;;20.05;44.67;100527.27;1706271;83;20961;-78
2022/05/23 11:46:00;;;;;;;1.77;1.67;;;;;;;20.00;44.72;100527.99;1674928;83;21417;-78
2022/05/23 11:48:53;;;;;;;2.55;2.02;;;;;;;20.02;44.77;100517.78;1702900;83;20944;-78
2022/05/23 11:51:36;;;;;;;4.70;1.90;;;;;;;20.08;44.77;100517.44;1709138;82;20948;-78
2022/05/23 11:54:10;;;;;;;1.67;1.30;;;;;;;20.09;44.59;100513.03;1701161;83;21044;-78
2022/05/23 11:57:06;;;;;;;3.00;1.80;;;;;;;20.01;44.59;100505.59;1711803;82;20962;-78
2022/05/23 11:59:39;;;;;;;2.90;1.92;;;;;;;20.02;44.65;100499.88;1711216;82;20875;-77
2022/05/23 12:02:13;;;;;;;1.75;1.52;;;;;;;20.10;44.64;100495.03;1701404;82;21485;-77
2022/05/23 12:04:55;;;;;;;1.98;1.80;;;;;;;20.10;44.64;100493.25;1719335;82;20945;-78
2022/05/23 12:07:45;;;;;;;3.17;1.52;;;;;;;20.15;44.58;100492.52;1703294;84;20960;-77
2022/05/23 12:10:28;;;;;;;3.42;2.08;;;;;;;20.19;44.62;100487.09;1719936;82;20976;-77
2022/05/23 12:12:58;;;;;;;4.08;2.10;;;;;;;20.21;44.55;100476.89;1713766;82;21441;-79
2022/05/23 12:15:48;;;;;;;2.83;2.62;;;;;;;20.15;44.41;100482.02;1715517;83;20949;-76
2022/05/23 12:18:28;;;;;;;2.77;1.92;;;;;;;20.11;44.55;100479.66;1708857;83;20917;-77
2022/05/23 12:21:03;;;;;;;2.05;1.87;;;;;;;20.18;44.61;100472.28;1720377;82;20929;-77
2022/05/23 12:23:44;;;;;;;2.15;1.57;;;;;;;20.22;44.50;100468.55;1690903;83;20952;-77
2022/05/23 12:26:18;;;;;;;2.30;2.08;;;;;;;20.28;44.52;100456.34;1708817;82;20945;-78
2022/05/23 12:29:00;;;;;;;2.02;1.70;;;;;;;20.32;44.50;100444.25;1708861;83;20952;-77
2022/05/23 12:31:36;;;;;;;3.58;2.02;;;;;;;20.40;44.58;100453.87;1711121;82;20965;-77
2022/05/23 12:34:07;;;;;;;3.72;2.27;;;;;;;20.48;44.53;100456.89;1719780;82;20862;-77
2022/05/23 12:36:38;;;;;;;2.50;2.10;;;;;;;20.53;44.56;100451.36;1706068;83;20949;-77
2022/05/23 12:39:43;;;;;;;2.10;2.00;;;;;;;20.55;44.55;100446.02;1694176;83;21648;-78
2022/05/23 12:42:31;;;;;;;2.20;2.00;;;;;;;20.61;44.55;100443.87;1717440;82;20901;-78
2022/05/23 12:45:33;;;;;;;4.65;2.25;;;;;;;20.67;44.55;100440.87;1688222;82;20961;-78
2022/05/23 12:48:20;;;;;;;2.77;2.25;;;;;;;20.63;44.50;100431.48;1702918;83;20952;-78
2022/05/23 12:51:15;;;;;;;2.50;2.30;;;;;;;20.65;44.51;100432.70;1704847;82;21405;-78